TFFRTKPK

Guest
Details From TFFR - Pointe a Pitre Le Raizet
To TKPK - St. Kitts/Bradshaw Intl
Flight Number -
Tags generated
Created
Modified
Stats Distance 93 nm / 172 km
Max Altitude 10,700 ft / 3,261 m
Waypoints 3
Social Downloads 0
Likes 0
Share VATSIM

Download

Looking for another format? Having issues loading an existing format? Contact us
Advertisement - Login to hide

Notes

Basic altitude profile: - Ascent Rate: 2500ft/min - Ascent Speed: 250kts - Cruise Altitude: 35000ft - Cruise Speed: 420kts - Descent Rate: 1500ft/min - Descent Speed: 250kts Options: - Use NATs: yes - Use PACOTS: yes - Use low airways: yes - Use high airways: yes

Route

TFFR BIMBO TKPK

ID Type Via Altitude Latitude Longitude Leg Dist Tot Dist Heading (true) Name
O TFFR APT - 0 ft / 0 m 16.26531˚ -61.53181˚ - 0 nm - Pointe a Pitre Le Raizet
BIMBO FIX - 10,700 ft / 3,261 m 16.62667˚ -61.96028˚ 32 nm 32 nm 311° / 311° -
O TKPK APT - 0 ft / 0 m 17.31119˚ -62.71867˚ 59 nm 92 nm 313° / 313° St. Kitts/Bradshaw Intl

Altitude Profile

Advertisement - Login to hide

TFFR

Details ICAO TFFR (PTP)
Name Pointe a Pitre Le Raizet
Region France (Guadeloupe, Martinique, Saint Barthélemy, Saint Martin)
Timezone America/Guadeloupe (UTC-4.0)
Stats Elevation 35 ft / 11 m (AMSL)
Location 16.265306° -61.531808°
Runways 1
Magnetic Variation 14.857° W

METAR

TFFR 132030Z AUTO 11008KT 9999 BKN031 28/21 Q1014 NOSIG

Decode

TAF

TAF TFFR 131700Z 1318/1418 13009KT 9999 SCT030 PROB30 TEMPO 1410/1413 4000 SHRA SCT015TCU

Decode

Departure Runways

ID Width Length Bearing (true) Bearing (mag) Surface Threshold Offset Overrun Length
11 148 ft / 45 m 11,513 ft / 3,509 m 100.94° 115.80° Asphalt 0 ft / 0 m 0 ft / 0 m
29 148 ft / 45 m 11,513 ft / 3,509 m 280.95° 295.81° Asphalt 0 ft / 0 m 0 ft / 0 m

TKPK

Details ICAO TKPK (SKB)
Name St. Kitts/Bradshaw Intl
Region Saint Kitts and Nevis
Timezone America/St_Kitts (UTC-4.0)
Stats Elevation 170 ft / 52 m (AMSL)
Location 17.311194° -62.718666°
Runways 1
Magnetic Variation 14.451° W

METAR

TKPK 132000Z 11008KT 9999 SCT019 28/23 Q1015

Decode

TAF

TAF TKPK 131739Z 1318/1418 08010KT P6SM VCSH FEW020 FM132300 VRB05KT P6SM SCT022 FM141200 11013KT P6SM FEW022 AMD NOT SKED 1402/1411

Decode

Destination Runways

ID Width Length Bearing (true) Bearing (mag) Surface Threshold Offset Overrun Length
07 148 ft / 45 m 7,620 ft / 2,323 m 56.95° 71.40° Asphalt 200 ft / 61 m 0 ft / 0 m
25 148 ft / 45 m 7,620 ft / 2,323 m 236.95° 251.40° Asphalt 0 ft / 0 m 0 ft / 0 m

Popular Alternatives